Paul Andrew — WCP2545 — position and weather

sailwx.info

Track history (hours):
 
Tides and Currents Weather Stations Pressure Air Temp Water Temp Dewpoint Dewpoint Depression Visibility Wind Speed Wind Dir Waves Ship Positions

Paul Andrew

Owner: Donjon Marine Co., Inc., HILLSIDE, NJ. More information available from US FCC via Universal Licensing System and Coast Guard Vessel Documentation Center.

Last reported at 2018-Apr-21 15:31 UTC. Time now 2018-Apr-21 17:15 UTC.
Position N 40°51' W 073°45'.

Length 20 m; draft 2.5 m.

Type: Tug. MMSI: 366979030.

Date/timePositionNaut miles runAvg speedWind from/ knotsBaromVisibWave heightAir tempDewpointWater temp
2018-Apr-21 15:31N 40°51' W 073°45'1 6.5
2018-Apr-21 15:19N 40°50' W 073°46'2 6.2
2018-Apr-21 14:59N 40°48' W 073°47'4 7.1
2018-Apr-21 14:30N 40°48' W 073°52'3 6.2
2018-Apr-21 13:58N 40°47' W 073°56'3 6.8
2018-Apr-21 13:30N 40°44' W 073°58'3 5.3
2018-Apr-21 13:00N 40°42' W 074°00'2 3.7
2018-Apr-21 12:29N 40°41' W 074°03'1 2.7
2018-Apr-21 11:58N 40°41' W 074°04'0 0.0
2018-Apr-21 11:28N 40°41' W 074°04'0 0.0
2018-Apr-21 10:58N 40°41' W 074°04'0 0.4
2018-Apr-21 10:30N 40°41' W 074°05'0 0.0
2018-Apr-21 10:00N 40°41' W 074°05'3 4.8
2018-Apr-21 09:29N 40°39' W 074°06'2 4.6
2018-Apr-21 09:00N 40°40' W 074°08'2 3.6
2018-Apr-21 08:26N 40°42' W 074°09'0 0.0
2018-Apr-21 07:56N 40°42' W 074°09'0 0.0
2018-Apr-21 07:29N 40°42' W 074°09'0 0.0
2018-Apr-21 06:59N 40°42' W 074°09'0 0.0
2018-Apr-21 06:29N 40°42' W 074°09'0 0.0
2018-Apr-21 05:59N 40°42' W 074°09'0 0.0
2018-Apr-21 05:26N 40°42' W 074°09'0 0.0
2018-Apr-21 04:59N 40°42' W 074°09'0 0.0
2018-Apr-21 04:29N 40°42' W 074°09'0 0.0
2018-Apr-21 03:59N 40°42' W 074°09'0 0.0
2018-Apr-21 03:29N 40°42' W 074°09'0 0.0
2018-Apr-21 02:59N 40°42' W 074°09'0 0.0
2018-Apr-21 02:29N 40°42' W 074°09'0 0.0
2018-Apr-21 01:59N 40°42' W 074°09'1 2.1
2018-Apr-21 01:30N 40°41' W 074°08'0 0.2
2018-Apr-21 01:00N 40°41' W 074°08'2 4.1
2018-Apr-21 00:30N 40°39' W 074°09'2 3.9
2018-Apr-21 00:00N 40°39' W 074°06'2 4.7
2018-Apr-20 23:30N 40°40' W 074°04'1 1.7
2018-Apr-20 22:58N 40°41' W 074°04'0 0.3
2018-Apr-20 22:29N 40°41' W 074°05'2 4.3
2018-Apr-20 22:00N 40°41' W 074°02'4 7.1
2018-Apr-20 21:30N 40°43' W 073°58'4 8.4
2018-Apr-20 21:00N 40°47' W 073°56'3 5.9
2018-Apr-20 20:29N 40°48' W 073°52'4 6.8
2018-Apr-20 19:57N 40°48' W 073°47'1 0.2
2018-Apr-20 16:43N 40°49' W 073°47'2 4.1
2018-Apr-20 16:17N 40°48' W 073°49'2 7.5
2018-Apr-20 16:00N 40°48' W 073°52'4 7.9
2018-Apr-20 15:30N 40°46' W 073°57'4 8.6
2018-Apr-20 15:00N 40°42' W 073°59'3 6.9
2018-Apr-20 14:30N 40°40' W 074°03'1 2.8
2018-Apr-20 14:00N 40°41' W 074°04'0 0.0
2018-Apr-20 13:30N 40°41' W 074°04'0 0.0
2018-Apr-20 13:00N 40°41' W 074°04'0 0.0
2018-Apr-20 12:30N 40°41' W 074°04'0 0.0
2018-Apr-20 12:00N 40°41' W 074°04'0 0.0
2018-Apr-20 11:30N 40°41' W 074°04'0 0.0
2018-Apr-20 11:00N 40°41' W 074°04'0 0.0
2018-Apr-20 10:27N 40°41' W 074°04'0 0.4
2018-Apr-20 10:00N 40°41' W 074°05'0 0.0
2018-Apr-20 09:30N 40°41' W 074°05'0 0.0
2018-Apr-20 09:00N 40°41' W 074°05'0 0.0
2018-Apr-20 08:30N 40°41' W 074°05'0 0.0
2018-Apr-20 08:00N 40°41' W 074°05'0 0.0
2018-Apr-20 07:30N 40°41' W 074°05'0 0.0
2018-Apr-20 07:00N 40°41' W 074°05'0 0.0
2018-Apr-20 06:30N 40°41' W 074°05'0 0.0
2018-Apr-20 05:57N 40°41' W 074°05'0 0.0
2018-Apr-20 05:30N 40°41' W 074°05'0 0.5
2018-Apr-20 05:00N 40°41' W 074°04'2 4.0
2018-Apr-20 04:28N 40°39' W 074°05'0 0.0
2018-Apr-20 03:58N 40°39' W 074°05'0 0.0
2018-Apr-20 03:28N 40°39' W 074°05'0 0.1
2018-Apr-20 03:00N 40°39' W 074°05'2 4.3
2018-Apr-20 02:31N 40°41' W 074°04'0 0.8
2018-Apr-20 02:00N 40°41' W 074°05'0 0.0
2018-Apr-20 01:27N 40°41' W 074°05'0 0.0
2018-Apr-20 01:00N 40°41' W 074°05'0 0.0
2018-Apr-20 00:30N 40°41' W 074°05'0 0.0
2018-Apr-20 00:00N 40°41' W 074°05'0 0.0
2018-Apr-19 23:30N 40°41' W 074°05'0 0.0
2018-Apr-19 23:00N 40°41' W 074°05'0 0.1
2018-Apr-19 22:30N 40°41' W 074°05'2 3.6
2018-Apr-19 22:00N 40°39' W 074°04'3 5.6
2018-Apr-19 21:30N 40°39' W 074°08'1 2.4
2018-Apr-19 21:00N 40°40' W 074°09'2 3.1
2018-Apr-19 20:30N 40°41' W 074°08'2 4.7
2018-Apr-19 20:00N 40°39' W 074°09'1 2.5
2018-Apr-19 19:26N 40°39' W 074°07'1 2.9
2018-Apr-19 19:00N 40°39' W 074°06'2 4.3
2018-Apr-19 18:30N 40°41' W 074°04'1 1.0
2018-Apr-19 18:00N 40°40' W 074°04'3 6.9
2018-Apr-19 17:30N 40°39' W 074°08'2 4.6
2018-Apr-19 17:00N 40°41' W 074°09'1 2.0
2018-Apr-19 16:29N 40°40' W 074°08'2 3.0
2018-Apr-19 15:58N 40°41' W 074°08'0 0.1
2018-Apr-19 15:30N 40°41' W 074°08'1 1.3
2018-Apr-19 15:00N 40°41' W 074°09'1 1.9
2018-Apr-19 14:30N 40°40' W 074°08'2 3.4
2018-Apr-19 14:00N 40°41' W 074°08'0 0.3
2018-Apr-19 13:29N 40°41' W 074°08'2 4.2
2018-Apr-19 13:00N 40°39' W 074°09'1 2.1
2018-Apr-19 12:21N 40°39' W 074°07'1 2.5
2018-Apr-19 12:01N 40°39' W 074°06'3 5.1
2018-Apr-19 11:30N 40°41' W 074°05'1 1.4
2018-Apr-19 11:00N 40°41' W 074°04'2 3.9
2018-Apr-19 10:30N 40°42' W 074°02'4 7.5
2018-Apr-19 10:00N 40°46' W 074°01'1 1.6
2018-Apr-19 09:29N 40°46' W 073°60'0 0.4
2018-Apr-19 09:00N 40°46' W 074°00'0 0.2
2018-Apr-19 08:30N 40°46' W 073°60'0 0.0
2018-Apr-19 07:58N 40°46' W 073°60'0 0.1
2018-Apr-19 07:28N 40°46' W 073°60'0 0.3
2018-Apr-19 06:59N 40°46' W 073°60'0 0.2
2018-Apr-19 06:30N 40°46' W 073°60'0 0.2
2018-Apr-19 05:55N 40°46' W 073°60'0 0.3
2018-Apr-19 05:28N 40°46' W 073°60'0 0.1
2018-Apr-19 04:58N 40°46' W 073°60'0 0.3
2018-Apr-19 04:28N 40°46' W 073°60'0 0.3
2018-Apr-19 04:00N 40°46' W 073°60'0 0.2
2018-Apr-19 03:30N 40°46' W 073°60'0 0.1
2018-Apr-19 03:00N 40°46' W 074°00'0 0.3
2018-Apr-19 02:28N 40°46' W 073°60'0 0.3
2018-Apr-19 02:00N 40°46' W 074°00'0 0.0
2018-Apr-19 01:30N 40°46' W 074°00'0 0.2
2018-Apr-19 00:55N 40°46' W 073°60'0 0.2
2018-Apr-19 00:29N 40°46' W 073°60'2 3.8
2018-Apr-19 00:00N 40°45' W 074°01'2 4.1
2018-Apr-18 23:30N 40°43' W 074°02'2 4.3
2018-Apr-18 23:00N 40°41' W 074°03'2 3.9
2018-Apr-18 22:30N 40°39' W 074°05'2 3.4
2018-Apr-18 22:00N 40°39' W 074°07'2 3.0
2018-Apr-18 21:30N 40°39' W 074°09'2 4.7
2018-Apr-18 21:00N 40°41' W 074°08'0 0.3
2018-Apr-18 20:30N 40°41' W 074°08'3 6.5
2018-Apr-18 20:00N 40°39' W 074°11'3 1.2
2018-Apr-18 17:31N 40°36' W 074°12'0 6.4
2018-Apr-18 17:29N 40°36' W 074°12'3 5.7
2018-Apr-18 17:00N 40°39' W 074°11'1 1.5
2018-Apr-18 16:30N 40°39' W 074°10'2 4.5
2018-Apr-18 16:00N 40°39' W 074°07'2 4.5
2018-Apr-18 15:30N 40°40' W 074°04'2 4.9
2018-Apr-18 15:00N 40°41' W 074°02'2 4.9
2018-Apr-18 14:30N 40°44' W 074°01'2 4.7
2018-Apr-18 14:00N 40°46' W 074°01'1 1.4
2018-Apr-18 13:30N 40°46' W 073°60'0 0.1
2018-Apr-18 12:58N 40°46' W 073°60'1 2.3
2018-Apr-18 12:30N 40°46' W 074°01'3 6.6
2018-Apr-18 12:00N 40°43' W 074°02'3 6.7
2018-Apr-18 11:30N 40°40' W 074°04'3 5.0
2018-Apr-18 10:59N 40°39' W 074°07'3 5.4
2018-Apr-18 10:31N 40°39' W 074°11'3 5.3
2018-Apr-18 10:00N 40°36' W 074°12'2 3.1
2018-Apr-18 09:21N 40°34' W 074°12'1 0.1
2018-Apr-18 01:24N 40°35' W 074°12'1 2.9
2018-Apr-18 00:55N 40°37' W 074°12'0 0.0
2018-Apr-18 00:28N 40°36' W 074°12'2 4.9
2018-Apr-18 00:00N 40°39' W 074°11'3 6.6
2018-Apr-17 23:30N 40°39' W 074°07'2 3.1
2018-Apr-17 23:00N 40°39' W 074°05'1 2.8
2018-Apr-17 22:30N 40°39' W 074°07'2 0.3
2018-Apr-17 16:53N 40°40' W 074°08'2 4.5
2018-Apr-17 16:30N 40°41' W 074°08'1 2.0
2018-Apr-17 16:00N 40°40' W 074°08'1 1.5
2018-Apr-17 15:30N 40°41' W 074°08'3 5.4
2018-Apr-17 14:59N 40°39' W 074°07'3 7.2
2018-Apr-17 14:30N 40°38' W 074°12'4 0.2
2018-Apr-16 21:18N 40°34' W 074°12'0 0.5
2018-Apr-16 21:01N 40°34' W 074°12'0 0.0
2018-Apr-16 20:27N 40°34' W 074°12'0 0.5
2018-Apr-16 19:33N 40°34' W 074°13'0 6.4
2018-Apr-16 19:30N 40°35' W 074°13'0 0.2
2018-Apr-16 18:46N 40°35' W 074°13'0 0.5
2018-Apr-16 17:47N 40°34' W 074°12'1 3.2
2018-Apr-16 17:30N 40°35' W 074°12'3 5.8
2018-Apr-16 17:00N 40°38' W 074°12'3 5.2
2018-Apr-16 16:30N 40°39' W 074°09'2 4.2
2018-Apr-16 16:00N 40°39' W 074°06'2 4.8
2018-Apr-16 15:30N 40°40' W 074°03'3 5.6
2018-Apr-16 15:00N 40°43' W 074°02'3 5.4
2018-Apr-16 14:30N 40°46' W 074°01'1 2.2
2018-Apr-16 14:00N 40°46' W 073°60'0 0.1
2018-Apr-16 13:30N 40°46' W 073°60'3 6.5
2018-Apr-16 13:01N 40°44' W 074°01'3 6.8
2018-Apr-16 12:30N 40°40' W 074°03'3 5.8
2018-Apr-16 12:01N 40°39' W 074°07'3 6.1
2018-Apr-16 11:30N 40°39' W 074°11'4 4.4
2018-Apr-16 10:34N 40°35' W 074°12'1 7.5
2018-Apr-16 10:28N 40°36' W 074°12'3 7.2
2018-Apr-16 10:00N 40°39' W 074°11'3 6.7
2018-Apr-16 09:30N 40°41' W 074°08'1 1.5
2018-Apr-16 08:50N 40°42' W 074°09'0 0.0
2018-Apr-16 08:26N 40°42' W 074°09'0 0.0
2018-Apr-16 07:56N 40°42' W 074°09'0 0.0
2018-Apr-16 07:29N 40°42' W 074°09'0 0.0
2018-Apr-16 06:59N 40°42' W 074°09'0 0.0
2018-Apr-16 06:26N 40°42' W 074°09'0 0.0
2018-Apr-16 05:56N 40°42' W 074°09'0 0.0
2018-Apr-16 05:26N 40°42' W 074°09'0 0.0
2018-Apr-16 04:44N 40°42' W 074°09'0 0.0
2018-Apr-16 04:26N 40°42' W 074°09'0 0.0
2018-Apr-16 03:56N 40°42' W 074°09'0 0.0
2018-Apr-16 03:26N 40°42' W 074°09'1 3.3
2018-Apr-16 02:59N 40°41' W 074°08'4 7.7
2018-Apr-16 02:28N 40°38' W 074°12'2 4.1
2018-Apr-16 01:55N 40°36' W 074°12'3 7.0
2018-Apr-16 01:29N 40°39' W 074°11'3 7.1
2018-Apr-16 01:00N 40°41' W 074°08'1 1.6
2018-Apr-16 00:27N 40°42' W 074°09'0 0.0
2018-Apr-15 23:57N 40°42' W 074°09'0 0.0
2018-Apr-15 23:21N 40°42' W 074°09'0 0.0
2018-Apr-15 23:00N 40°42' W 074°09'3 6.4
2018-Apr-15 22:30N 40°39' W 074°10'5 2.5
2018-Apr-15 20:34N 40°34' W 074°12'0 5.3
2018-Apr-15 20:29N 40°35' W 074°13'2 3.1
2018-Apr-15 19:58N 40°36' W 074°12'3 6.8
2018-Apr-15 19:29N 40°39' W 074°09'3 6.2
2018-Apr-15 19:00N 40°42' W 074°09'0 0.2
2018-Apr-15 18:01N 40°42' W 074°09'0 0.0
2018-Apr-15 17:49N 40°42' W 074°09'0 0.0
2018-Apr-15 17:28N 40°42' W 074°09'0 0.0
2018-Apr-15 16:58N 40°42' W 074°09'0 0.0
2018-Apr-15 16:28N 40°42' W 074°09'0 0.0
2018-Apr-15 15:58N 40°42' W 074°09'0 0.0
2018-Apr-15 15:16N 40°42' W 074°09'0 0.0
2018-Apr-15 14:58N 40°42' W 074°09'0 0.0
2018-Apr-15 14:28N 40°42' W 074°09'0 0.2
2018-Apr-15 14:00N 40°42' W 074°09'1 1.9
2018-Apr-15 13:28N 40°41' W 074°08'1 2.3
2018-Apr-15 13:00N 40°42' W 074°09'0 0.0
2018-Apr-15 12:30N 40°42' W 074°09'0 0.0
2018-Apr-15 11:54N 40°42' W 074°09'0 0.0
2018-Apr-15 11:18N 40°42' W 074°09'0 0.0
2018-Apr-15 11:00N 40°42' W 074°09'0 0.0
2018-Apr-15 10:21N 40°42' W 074°09'0 0.0
2018-Apr-15 10:00N 40°42' W 074°09'0 0.0
2018-Apr-15 09:27N 40°42' W 074°09'0 0.0
2018-Apr-15 08:57N 40°42' W 074°09'0 0.0
2018-Apr-15 08:15N 40°42' W 074°09'0 0.8
2018-Apr-15 07:55N 40°42' W 074°09'3 6.2
2018-Apr-15 07:30N 40°39' W 074°09'3 6.4
2018-Apr-15 07:00N 40°37' W 074°12'2 2.3
2018-Apr-15 05:56N 40°35' W 074°13'1 0.5
2018-Apr-15 04:40N 40°34' W 074°12'1 3.2
2018-Apr-15 04:29N 40°35' W 074°13'4 7.1
2018-Apr-15 03:58N 40°38' W 074°12'3 7.1
2018-Apr-15 03:30N 40°40' W 074°08'2 1.9
2018-Apr-15 02:34N 40°42' W 074°09'0 0.0
2018-Apr-15 01:16N 40°42' W 074°09'0 0.0
2018-Apr-15 00:52N 40°42' W 074°09'0 0.0
2018-Apr-14 23:47N 40°42' W 074°09'1 4.2
2018-Apr-14 23:29N 40°41' W 074°09'1 2.4
2018-Apr-14 23:00N 40°40' W 074°08'2 4.5
2018-Apr-14 22:29N 40°42' W 074°09'3 6.1
2018-Apr-14 22:01N 40°39' W 074°09'4 7.4
2018-Apr-14 21:31N 40°40' W 074°04'1 2.4
2018-Apr-14 20:54N 40°41' W 074°05'0 0.0
2018-Apr-14 20:30N 40°41' W 074°05'0 0.0
2018-Apr-14 20:00N 40°41' W 074°05'0 0.0
2018-Apr-14 19:30N 40°41' W 074°05'0 0.0
2018-Apr-14 19:00N 40°41' W 074°05'0 0.0
2018-Apr-14 18:27N 40°41' W 074°05'0 0.0
2018-Apr-14 18:00N 40°41' W 074°05'0 0.0
2018-Apr-14 17:30N 40°41' W 074°05'0 0.1
2018-Apr-14 17:00N 40°41' W 074°05'0 0.5
2018-Apr-14 16:30N 40°41' W 074°04'0 0.5
2018-Apr-14 16:00N 40°41' W 074°05'0 0.0
2018-Apr-14 15:30N 40°41' W 074°05'0 0.0
2018-Apr-14 14:57N 40°41' W 074°05'2 4.3
2018-Apr-14 14:30N 40°42' W 074°02'4 8.1
2018-Apr-14 14:00N 40°46' W 074°01'1 2.0
2018-Apr-14 13:28N 40°46' W 073°60'2 3.6
2018-Apr-14 13:00N 40°45' W 074°01'4 7.5
2018-Apr-14 12:30N 40°41' W 074°02'3 6.8
2018-Apr-14 12:00N 40°39' W 074°05'3 6.6
2018-Apr-14 11:30N 40°39' W 074°10'5 4.0
2018-Apr-14 10:19N 40°34' W 074°12'2 2.8
2018-Apr-14 09:42N 40°36' W 074°12'1 6.0
2018-Apr-14 09:30N 40°37' W 074°12'3 5.1
2018-Apr-14 08:58N 40°39' W 074°09'4 7.6
2018-Apr-14 08:30N 40°39' W 074°04'4 7.1
2018-Apr-14 08:00N 40°42' W 074°02'4 8.8
2018-Apr-14 07:30N 40°46' W 073°60'0 0.3
2018-Apr-14 07:00N 40°46' W 073°60'1 2.2
2018-Apr-14 06:30N 40°45' W 074°01'3 6.2
2018-Apr-14 06:00N 40°43' W 074°02'3 6.8
2018-Apr-14 05:30N 40°40' W 074°04'3 6.6
2018-Apr-14 04:59N 40°39' W 074°09'1 2.4
2018-Apr-14 04:30N 40°41' W 074°08'2 4.0
2018-Apr-14 04:00N 40°39' W 074°08'3 5.1
2018-Apr-14 03:30N 40°39' W 074°05'2 3.8
2018-Apr-14 02:59N 40°41' W 074°05'0 0.0
2018-Apr-14 02:29N 40°41' W 074°05'0 0.6
2018-Apr-14 02:00N 40°41' W 074°04'2 4.7
2018-Apr-14 01:30N 40°39' W 074°06'2 4.8
2018-Apr-14 00:59N 40°40' W 074°09'2 3.0
2018-Apr-14 00:29N 40°41' W 074°08'2 5.0
2018-Apr-14 00:00N 40°39' W 074°10'4 1.9
2018-Apr-13 21:45N 40°35' W 074°12'1 0.5
2018-Apr-13 19:20N 40°36' W 074°12'2 6.5
2018-Apr-13 18:59N 40°39' W 074°11'3 6.1
2018-Apr-13 18:30N 40°39' W 074°08'2 4.7
2018-Apr-13 18:00N 40°39' W 074°05'3 5.6
2018-Apr-13 17:30N 40°39' W 074°08'2 4.0
2018-Apr-13 17:00N 40°41' W 074°08'1 1.5
2018-Apr-13 16:30N 40°41' W 074°08'3 5.2
2018-Apr-13 16:00N 40°39' W 074°08'3 6.7
2018-Apr-13 15:30N 40°40' W 074°04'4 8.8
2018-Apr-13 15:00N 40°44' W 074°01'3 5.8
2018-Apr-13 14:30N 40°46' W 073°60'2 4.9
2018-Apr-13 14:00N 40°44' W 074°01'3 6.1
2018-Apr-13 13:31N 40°41' W 074°02'3 6.0
2018-Apr-13 13:00N 40°39' W 074°05'3 7.0
2018-Apr-13 12:30N 40°39' W 074°10'5 3.8
2018-Apr-13 11:16N 40°34' W 074°12'1 4.3
2018-Apr-13 10:57N 40°36' W 074°12'3 5.8
2018-Apr-13 10:30N 40°38' W 074°12'3 5.7
2018-Apr-13 09:59N 40°39' W 074°08'3 6.1
2018-Apr-13 09:31N 40°40' W 074°04'3 5.5
2018-Apr-13 09:00N 40°42' W 074°02'3 6.9
2018-Apr-13 08:30N 40°45' W 074°01'2 3.0
2018-Apr-13 08:00N 40°46' W 073°60'1 1.1
2018-Apr-13 07:30N 40°46' W 074°00'3 6.6
2018-Apr-13 07:00N 40°43' W 074°02'3 5.6
2018-Apr-13 06:30N 40°41' W 074°04'1 1.0
2018-Apr-13 05:59N 40°41' W 074°05'0 0.0
2018-Apr-13 05:29N 40°41' W 074°05'0 0.0
2018-Apr-13 04:59N 40°41' W 074°05'0 0.0
2018-Apr-13 04:29N 40°41' W 074°05'0 0.0
2018-Apr-13 03:59N 40°41' W 074°05'0 0.0
2018-Apr-13 03:29N 40°41' W 074°05'0 0.0
2018-Apr-13 02:59N 40°41' W 074°05'0 0.3
2018-Apr-13 02:29N 40°41' W 074°05'2 3.5
2018-Apr-13 01:59N 40°39' W 074°04'4 7.8
2018-Apr-13 01:31N 40°39' W 074°09'2 4.7
2018-Apr-13 00:59N 40°41' W 074°08'2 5.0
2018-Apr-13 00:30N 40°39' W 074°08'4 7.2
2018-Apr-13 00:00N 40°40' W 074°04'1 2.3
2018-Apr-12 23:30N 40°41' W 074°05'0 0.7
2018-Apr-12 23:00N 40°41' W 074°04'3 5.0
2018-Apr-12 22:30N 40°39' W 074°06'2 4.3
2018-Apr-12 22:00N 40°40' W 074°09'1 2.8
2018-Apr-12 21:30N 40°41' W 074°08'1 1.7
2018-Apr-12 20:58N 40°40' W 074°08'1 2.9
2018-Apr-12 20:29N 40°39' W 074°08'3 5.5
2018-Apr-12 20:00N 40°39' W 074°05'2 3.3
2018-Apr-12 19:30N 40°41' W 074°04'2 3.4
2018-Apr-12 19:00N 40°42' W 074°02'510.2
2018-Apr-12 18:31N 40°46' W 073°60'1 2.4
2018-Apr-12 18:00N 40°45' W 074°01'2 4.0
2018-Apr-12 17:30N 40°44' W 074°01'2 4.1
2018-Apr-12 17:01N 40°42' W 074°02'3 5.1
2018-Apr-12 16:31N 40°39' W 074°04'3 6.9
2018-Apr-12 16:00N 40°38' W 074°09'3 5.1
2018-Apr-12 15:28N 40°38' W 074°12'4 1.6
2018-Apr-12 13:13N 40°34' W 074°12'1 0.9
2018-Apr-12 12:38N 40°35' W 074°13'2 6.4
2018-Apr-12 12:23N 40°36' W 074°12'2 6.2
2018-Apr-12 12:00N 40°39' W 074°11'3 5.8
2018-Apr-12 11:30N 40°39' W 074°07'3 5.8
2018-Apr-12 11:00N 40°40' W 074°04'3 5.8
2018-Apr-12 10:30N 40°42' W 074°02'3 6.0
2018-Apr-12 10:00N 40°45' W 074°01'2 3.2
2018-Apr-12 09:30N 40°46' W 073°60'1 1.2
2018-Apr-12 09:00N 40°46' W 074°00'0 0.2
2018-Apr-12 08:30N 40°46' W 074°00'1 1.2
2018-Apr-12 07:59N 40°46' W 073°60'0 0.0
2018-Apr-12 07:29N 40°46' W 073°60'1 1.2
2018-Apr-12 06:59N 40°46' W 074°00'0 0.0
2018-Apr-12 06:29N 40°46' W 074°00'0 0.0
2018-Apr-12 05:59N 40°46' W 074°00'0 0.0
2018-Apr-12 05:29N 40°46' W 074°00'0 0.0
2018-Apr-12 04:59N 40°46' W 074°00'0 0.0
2018-Apr-12 04:29N 40°46' W 074°00'0 0.0
2018-Apr-12 03:59N 40°46' W 074°00'0 0.0
2018-Apr-12 03:29N 40°46' W 074°00'0 0.0
2018-Apr-12 02:59N 40°46' W 074°00'0 0.0
2018-Apr-12 02:29N 40°46' W 074°00'0 0.0
2018-Apr-12 01:59N 40°46' W 074°00'0 0.0
2018-Apr-12 01:29N 40°46' W 074°00'0 0.0
2018-Apr-12 00:59N 40°46' W 074°00'0 0.2
2018-Apr-12 00:30N 40°46' W 074°00'0 0.2
2018-Apr-12 00:00N 40°46' W 074°00'0 0.0
2018-Apr-11 23:30N 40°46' W 074°00'0 0.0
2018-Apr-11 23:00N 40°46' W 074°00'0 0.0
2018-Apr-11 22:30N 40°46' W 074°00'0 0.0
2018-Apr-11 22:00N 40°46' W 074°00'0 0.0
2018-Apr-11 21:30N 40°46' W 074°00'0 0.0
2018-Apr-11 21:00N 40°46' W 074°00'0 0.0
2018-Apr-11 20:30N 40°46' W 074°00'0 0.0
2018-Apr-11 20:00N 40°46' W 074°00'0 0.2
2018-Apr-11 19:30N 40°46' W 074°00'0 0.8
2018-Apr-11 18:59N 40°46' W 074°01'0 0.9
2018-Apr-11 18:29N 40°45' W 074°01'0 0.2
2018-Apr-11 17:59N 40°45' W 074°01'1 1.5
2018-Apr-11 17:31N 40°45' W 074°01'3 5.1
2018-Apr-11 17:01N 40°42' W 074°02'2 4.2
2018-Apr-11 16:30N 40°41' W 074°04'0 0.8
2018-Apr-11 15:59N 40°41' W 074°04'  
Track history (hours):
 
Tides and Currents Weather Stations Pressure Air Temp Water Temp Dewpoint Dewpoint Depression Visibility Wind Speed Wind Dir Waves Ship Positions

Paul Andrew

Owner: Donjon Marine Co., Inc., HILLSIDE, NJ. More information available from US FCC via Universal Licensing System and Coast Guard Vessel Documentation Center.

Last reported at 2018-Apr-21 15:31 UTC. Time now 2018-Apr-21 17:15 UTC.
Position N 40°51' W 073°45'.

Length 20 m; draft 2.5 m.

Type: Tug. MMSI: 366979030.

Date/timePositionNaut miles runAvg speedWind from/ knotsBaromVisibWave heightAir tempDewpointWater temp
2018-Apr-21 15:31N 40°51' W 073°45'1 6.5
2018-Apr-21 15:19N 40°50' W 073°46'2 6.2
2018-Apr-21 14:59N 40°48' W 073°47'4 7.1
2018-Apr-21 14:30N 40°48' W 073°52'3 6.2
2018-Apr-21 13:58N 40°47' W 073°56'3 6.8
2018-Apr-21 13:30N 40°44' W 073°58'3 5.3
2018-Apr-21 13:00N 40°42' W 074°00'2 3.7
2018-Apr-21 12:29N 40°41' W 074°03'1 2.7
2018-Apr-21 11:58N 40°41' W 074°04'0 0.0
2018-Apr-21 11:28N 40°41' W 074°04'0 0.0
2018-Apr-21 10:58N 40°41' W 074°04'0 0.4
2018-Apr-21 10:30N 40°41' W 074°05'0 0.0
2018-Apr-21 10:00N 40°41' W 074°05'3 4.8
2018-Apr-21 09:29N 40°39' W 074°06'2 4.6
2018-Apr-21 09:00N 40°40' W 074°08'2 3.6
2018-Apr-21 08:26N 40°42' W 074°09'0 0.0
2018-Apr-21 07:56N 40°42' W 074°09'0 0.0
2018-Apr-21 07:29N 40°42' W 074°09'0 0.0
2018-Apr-21 06:59N 40°42' W 074°09'0 0.0
2018-Apr-21 06:29N 40°42' W 074°09'0 0.0
2018-Apr-21 05:59N 40°42' W 074°09'0 0.0
2018-Apr-21 05:26N 40°42' W 074°09'0 0.0
2018-Apr-21 04:59N 40°42' W 074°09'0 0.0
2018-Apr-21 04:29N 40°42' W 074°09'0 0.0
2018-Apr-21 03:59N 40°42' W 074°09'0 0.0
2018-Apr-21 03:29N 40°42' W 074°09'0 0.0
2018-Apr-21 02:59N 40°42' W 074°09'0 0.0
2018-Apr-21 02:29N 40°42' W 074°09'0 0.0
2018-Apr-21 01:59N 40°42' W 074°09'1 2.1
2018-Apr-21 01:30N 40°41' W 074°08'0 0.2
2018-Apr-21 01:00N 40°41' W 074°08'2 4.1
2018-Apr-21 00:30N 40°39' W 074°09'2 3.9
2018-Apr-21 00:00N 40°39' W 074°06'2 4.7
2018-Apr-20 23:30N 40°40' W 074°04'1 1.7
2018-Apr-20 22:58N 40°41' W 074°04'0 0.3
2018-Apr-20 22:29N 40°41' W 074°05'2 4.3
2018-Apr-20 22:00N 40°41' W 074°02'4 7.1
2018-Apr-20 21:30N 40°43' W 073°58'4 8.4
2018-Apr-20 21:00N 40°47' W 073°56'3 5.9
2018-Apr-20 20:29N 40°48' W 073°52'4 6.8
2018-Apr-20 19:57N 40°48' W 073°47'1 0.2
2018-Apr-20 16:43N 40°49' W 073°47'2 4.1
2018-Apr-20 16:17N 40°48' W 073°49'2 7.5
2018-Apr-20 16:00N 40°48' W 073°52'4 7.9
2018-Apr-20 15:30N 40°46' W 073°57'4 8.6
2018-Apr-20 15:00N 40°42' W 073°59'3 6.9
2018-Apr-20 14:30N 40°40' W 074°03'1 2.8
2018-Apr-20 14:00N 40°41' W 074°04'0 0.0
2018-Apr-20 13:30N 40°41' W 074°04'0 0.0
2018-Apr-20 13:00N 40°41' W 074°04'0 0.0
2018-Apr-20 12:30N 40°41' W 074°04'0 0.0
2018-Apr-20 12:00N 40°41' W 074°04'0 0.0
2018-Apr-20 11:30N 40°41' W 074°04'0 0.0
2018-Apr-20 11:00N 40°41' W 074°04'0 0.0
2018-Apr-20 10:27N 40°41' W 074°04'0 0.4
2018-Apr-20 10:00N 40°41' W 074°05'0 0.0
2018-Apr-20 09:30N 40°41' W 074°05'0 0.0
2018-Apr-20 09:00N 40°41' W 074°05'0 0.0
2018-Apr-20 08:30N 40°41' W 074°05'0 0.0
2018-Apr-20 08:00N 40°41' W 074°05'0 0.0
2018-Apr-20 07:30N 40°41' W 074°05'0 0.0
2018-Apr-20 07:00N 40°41' W 074°05'0 0.0
2018-Apr-20 06:30N 40°41' W 074°05'0 0.0
2018-Apr-20 05:57N 40°41' W 074°05'0 0.0
2018-Apr-20 05:30N 40°41' W 074°05'0 0.5
2018-Apr-20 05:00N 40°41' W 074°04'2 4.0
2018-Apr-20 04:28N 40°39' W 074°05'0 0.0
2018-Apr-20 03:58N 40°39' W 074°05'0 0.0
2018-Apr-20 03:28N 40°39' W 074°05'0 0.1
2018-Apr-20 03:00N 40°39' W 074°05'2 4.3
2018-Apr-20 02:31N 40°41' W 074°04'0 0.8
2018-Apr-20 02:00N 40°41' W 074°05'0 0.0
2018-Apr-20 01:27N 40°41' W 074°05'0 0.0
2018-Apr-20 01:00N 40°41' W 074°05'0 0.0
2018-Apr-20 00:30N 40°41' W 074°05'0 0.0
2018-Apr-20 00:00N 40°41' W 074°05'0 0.0
2018-Apr-19 23:30N 40°41' W 074°05'0 0.0
2018-Apr-19 23:00N 40°41' W 074°05'0 0.1
2018-Apr-19 22:30N 40°41' W 074°05'2 3.6
2018-Apr-19 22:00N 40°39' W 074°04'3 5.6
2018-Apr-19 21:30N 40°39' W 074°08'1 2.4
2018-Apr-19 21:00N 40°40' W 074°09'2 3.1
2018-Apr-19 20:30N 40°41' W 074°08'2 4.7
2018-Apr-19 20:00N 40°39' W 074°09'1 2.5
2018-Apr-19 19:26N 40°39' W 074°07'1 2.9
2018-Apr-19 19:00N 40°39' W 074°06'2 4.3
2018-Apr-19 18:30N 40°41' W 074°04'1 1.0
2018-Apr-19 18:00N 40°40' W 074°04'3 6.9
2018-Apr-19 17:30N 40°39' W 074°08'2 4.6
2018-Apr-19 17:00N 40°41' W 074°09'1 2.0
2018-Apr-19 16:29N 40°40' W 074°08'2 3.0
2018-Apr-19 15:58N 40°41' W 074°08'0 0.1
2018-Apr-19 15:30N 40°41' W 074°08'1 1.3
2018-Apr-19 15:00N 40°41' W 074°09'1 1.9
2018-Apr-19 14:30N 40°40' W 074°08'2 3.4
2018-Apr-19 14:00N 40°41' W 074°08'0 0.3
2018-Apr-19 13:29N 40°41' W 074°08'2 4.2
2018-Apr-19 13:00N 40°39' W 074°09'1 2.1
2018-Apr-19 12:21N 40°39' W 074°07'1 2.5
2018-Apr-19 12:01N 40°39' W 074°06'3 5.1
2018-Apr-19 11:30N 40°41' W 074°05'1 1.4
2018-Apr-19 11:00N 40°41' W 074°04'2 3.9
2018-Apr-19 10:30N 40°42' W 074°02'4 7.5
2018-Apr-19 10:00N 40°46' W 074°01'1 1.6
2018-Apr-19 09:29N 40°46' W 073°60'0 0.4
2018-Apr-19 09:00N 40°46' W 074°00'0 0.2
2018-Apr-19 08:30N 40°46' W 073°60'0 0.0
2018-Apr-19 07:58N 40°46' W 073°60'0 0.1
2018-Apr-19 07:28N 40°46' W 073°60'0 0.3
2018-Apr-19 06:59N 40°46' W 073°60'0 0.2
2018-Apr-19 06:30N 40°46' W 073°60'0 0.2
2018-Apr-19 05:55N 40°46' W 073°60'0 0.3
2018-Apr-19 05:28N 40°46' W 073°60'0 0.1
2018-Apr-19 04:58N 40°46' W 073°60'0 0.3
2018-Apr-19 04:28N 40°46' W 073°60'0 0.3
2018-Apr-19 04:00N 40°46' W 073°60'0 0.2
2018-Apr-19 03:30N 40°46' W 073°60'0 0.1
2018-Apr-19 03:00N 40°46' W 074°00'0 0.3
2018-Apr-19 02:28N 40°46' W 073°60'0 0.3
2018-Apr-19 02:00N 40°46' W 074°00'0 0.0
2018-Apr-19 01:30N 40°46' W 074°00'0 0.2
2018-Apr-19 00:55N 40°46' W 073°60'0 0.2
2018-Apr-19 00:29N 40°46' W 073°60'2 3.8
2018-Apr-19 00:00N 40°45' W 074°01'2 4.1
2018-Apr-18 23:30N 40°43' W 074°02'2 4.3
2018-Apr-18 23:00N 40°41' W 074°03'2 3.9
2018-Apr-18 22:30N 40°39' W 074°05'2 3.4
2018-Apr-18 22:00N 40°39' W 074°07'2 3.0
2018-Apr-18 21:30N 40°39' W 074°09'2 4.7
2018-Apr-18 21:00N 40°41' W 074°08'0 0.3
2018-Apr-18 20:30N 40°41' W 074°08'3 6.5
2018-Apr-18 20:00N 40°39' W 074°11'3 1.2
2018-Apr-18 17:31N 40°36' W 074°12'0 6.4
2018-Apr-18 17:29N 40°36' W 074°12'3 5.7
2018-Apr-18 17:00N 40°39' W 074°11'1 1.5
2018-Apr-18 16:30N 40°39' W 074°10'2 4.5
2018-Apr-18 16:00N 40°39' W 074°07'2 4.5
2018-Apr-18 15:30N 40°40' W 074°04'2 4.9
2018-Apr-18 15:00N 40°41' W 074°02'2 4.9
2018-Apr-18 14:30N 40°44' W 074°01'2 4.7
2018-Apr-18 14:00N 40°46' W 074°01'1 1.4
2018-Apr-18 13:30N 40°46' W 073°60'0 0.1
2018-Apr-18 12:58N 40°46' W 073°60'1 2.3
2018-Apr-18 12:30N 40°46' W 074°01'3 6.6
2018-Apr-18 12:00N 40°43' W 074°02'3 6.7
2018-Apr-18 11:30N 40°40' W 074°04'3 5.0
2018-Apr-18 10:59N 40°39' W 074°07'3 5.4
2018-Apr-18 10:31N 40°39' W 074°11'3 5.3
2018-Apr-18 10:00N 40°36' W 074°12'2 3.1
2018-Apr-18 09:21N 40°34' W 074°12'1 0.1
2018-Apr-18 01:24N 40°35' W 074°12'1 2.9
2018-Apr-18 00:55N 40°37' W 074°12'0 0.0
2018-Apr-18 00:28N 40°36' W 074°12'2 4.9
2018-Apr-18 00:00N 40°39' W 074°11'3 6.6
2018-Apr-17 23:30N 40°39' W 074°07'2 3.1
2018-Apr-17 23:00N 40°39' W 074°05'1 2.8
2018-Apr-17 22:30N 40°39' W 074°07'2 0.3
2018-Apr-17 16:53N 40°40' W 074°08'2 4.5
2018-Apr-17 16:30N 40°41' W 074°08'1 2.0
2018-Apr-17 16:00N 40°40' W 074°08'1 1.5
2018-Apr-17 15:30N 40°41' W 074°08'3 5.4
2018-Apr-17 14:59N 40°39' W 074°07'3 7.2
2018-Apr-17 14:30N 40°38' W 074°12'4 0.2
2018-Apr-16 21:18N 40°34' W 074°12'0 0.5
2018-Apr-16 21:01N 40°34' W 074°12'0 0.0
2018-Apr-16 20:27N 40°34' W 074°12'0 0.5
2018-Apr-16 19:33N 40°34' W 074°13'0 6.4
2018-Apr-16 19:30N 40°35' W 074°13'0 0.2
2018-Apr-16 18:46N 40°35' W 074°13'0 0.5
2018-Apr-16 17:47N 40°34' W 074°12'1 3.2
2018-Apr-16 17:30N 40°35' W 074°12'3 5.8
2018-Apr-16 17:00N 40°38' W 074°12'3 5.2
2018-Apr-16 16:30N 40°39' W 074°09'2 4.2
2018-Apr-16 16:00N 40°39' W 074°06'2 4.8
2018-Apr-16 15:30N 40°40' W 074°03'3 5.6
2018-Apr-16 15:00N 40°43' W 074°02'3 5.4
2018-Apr-16 14:30N 40°46' W 074°01'1 2.2
2018-Apr-16 14:00N 40°46' W 073°60'0 0.1
2018-Apr-16 13:30N 40°46' W 073°60'3 6.5
2018-Apr-16 13:01N 40°44' W 074°01'3 6.8
2018-Apr-16 12:30N 40°40' W 074°03'3 5.8
2018-Apr-16 12:01N 40°39' W 074°07'3 6.1
2018-Apr-16 11:30N 40°39' W 074°11'4 4.4
2018-Apr-16 10:34N 40°35' W 074°12'1 7.5
2018-Apr-16 10:28N 40°36' W 074°12'3 7.2
2018-Apr-16 10:00N 40°39' W 074°11'3 6.7
2018-Apr-16 09:30N 40°41' W 074°08'1 1.5
2018-Apr-16 08:50N 40°42' W 074°09'0 0.0
2018-Apr-16 08:26N 40°42' W 074°09'0 0.0
2018-Apr-16 07:56N 40°42' W 074°09'0 0.0
2018-Apr-16 07:29N 40°42' W 074°09'0 0.0
2018-Apr-16 06:59N 40°42' W 074°09'0 0.0
2018-Apr-16 06:26N 40°42' W 074°09'0 0.0
2018-Apr-16 05:56N 40°42' W 074°09'0 0.0
2018-Apr-16 05:26N 40°42' W 074°09'0 0.0
2018-Apr-16 04:44N 40°42' W 074°09'0 0.0
2018-Apr-16 04:26N 40°42' W 074°09'0 0.0
2018-Apr-16 03:56N 40°42' W 074°09'0 0.0
2018-Apr-16 03:26N 40°42' W 074°09'1 3.3
2018-Apr-16 02:59N 40°41' W 074°08'4 7.7
2018-Apr-16 02:28N 40°38' W 074°12'2 4.1
2018-Apr-16 01:55N 40°36' W 074°12'3 7.0
2018-Apr-16 01:29N 40°39' W 074°11'3 7.1
2018-Apr-16 01:00N 40°41' W 074°08'1 1.6
2018-Apr-16 00:27N 40°42' W 074°09'0 0.0
2018-Apr-15 23:57N 40°42' W 074°09'0 0.0
2018-Apr-15 23:21N 40°42' W 074°09'0 0.0
2018-Apr-15 23:00N 40°42' W 074°09'3 6.4
2018-Apr-15 22:30N 40°39' W 074°10'5 2.5
2018-Apr-15 20:34N 40°34' W 074°12'0 5.3
2018-Apr-15 20:29N 40°35' W 074°13'2 3.1
2018-Apr-15 19:58N 40°36' W 074°12'3 6.8
2018-Apr-15 19:29N 40°39' W 074°09'3 6.2
2018-Apr-15 19:00N 40°42' W 074°09'0 0.2
2018-Apr-15 18:01N 40°42' W 074°09'0 0.0
2018-Apr-15 17:49N 40°42' W 074°09'0 0.0
2018-Apr-15 17:28N 40°42' W 074°09'0 0.0
2018-Apr-15 16:58N 40°42' W 074°09'0 0.0
2018-Apr-15 16:28N 40°42' W 074°09'0 0.0
2018-Apr-15 15:58N 40°42' W 074°09'0 0.0
2018-Apr-15 15:16N 40°42' W 074°09'0 0.0
2018-Apr-15 14:58N 40°42' W 074°09'0 0.0
2018-Apr-15 14:28N 40°42' W 074°09'0 0.2
2018-Apr-15 14:00N 40°42' W 074°09'1 1.9
2018-Apr-15 13:28N 40°41' W 074°08'1 2.3
2018-Apr-15 13:00N 40°42' W 074°09'0 0.0
2018-Apr-15 12:30N 40°42' W 074°09'0 0.0
2018-Apr-15 11:54N 40°42' W 074°09'0 0.0
2018-Apr-15 11:18N 40°42' W 074°09'0 0.0
2018-Apr-15 11:00N 40°42' W 074°09'0 0.0
2018-Apr-15 10:21N 40°42' W 074°09'0 0.0
2018-Apr-15 10:00N 40°42' W 074°09'0 0.0
2018-Apr-15 09:27N 40°42' W 074°09'0 0.0
2018-Apr-15 08:57N 40°42' W 074°09'0 0.0
2018-Apr-15 08:15N 40°42' W 074°09'0 0.8
2018-Apr-15 07:55N 40°42' W 074°09'3 6.2
2018-Apr-15 07:30N 40°39' W 074°09'3 6.4
2018-Apr-15 07:00N 40°37' W 074°12'2 2.3
2018-Apr-15 05:56N 40°35' W 074°13'1 0.5
2018-Apr-15 04:40N 40°34' W 074°12'1 3.2
2018-Apr-15 04:29N 40°35' W 074°13'4 7.1
2018-Apr-15 03:58N 40°38' W 074°12'3 7.1
2018-Apr-15 03:30N 40°40' W 074°08'2 1.9
2018-Apr-15 02:34N 40°42' W 074°09'0 0.0
2018-Apr-15 01:16N 40°42' W 074°09'0 0.0
2018-Apr-15 00:52N 40°42' W 074°09'0 0.0
2018-Apr-14 23:47N 40°42' W 074°09'1 4.2
2018-Apr-14 23:29N 40°41' W 074°09'1 2.4
2018-Apr-14 23:00N 40°40' W 074°08'2 4.5
2018-Apr-14 22:29N 40°42' W 074°09'3 6.1
2018-Apr-14 22:01N 40°39' W 074°09'4 7.4
2018-Apr-14 21:31N 40°40' W 074°04'1 2.4
2018-Apr-14 20:54N 40°41' W 074°05'0 0.0
2018-Apr-14 20:30N 40°41' W 074°05'0 0.0
2018-Apr-14 20:00N 40°41' W 074°05'0 0.0
2018-Apr-14 19:30N 40°41' W 074°05'0 0.0
2018-Apr-14 19:00N 40°41' W 074°05'0 0.0
2018-Apr-14 18:27N 40°41' W 074°05'0 0.0
2018-Apr-14 18:00N 40°41' W 074°05'0 0.0
2018-Apr-14 17:30N 40°41' W 074°05'0 0.1
2018-Apr-14 17:00N 40°41' W 074°05'0 0.5
2018-Apr-14 16:30N 40°41' W 074°04'0 0.5
2018-Apr-14 16:00N 40°41' W 074°05'0 0.0
2018-Apr-14 15:30N 40°41' W 074°05'0 0.0
2018-Apr-14 14:57N 40°41' W 074°05'2 4.3
2018-Apr-14 14:30N 40°42' W 074°02'4 8.1
2018-Apr-14 14:00N 40°46' W 074°01'1 2.0
2018-Apr-14 13:28N 40°46' W 073°60'2 3.6
2018-Apr-14 13:00N 40°45' W 074°01'4 7.5
2018-Apr-14 12:30N 40°41' W 074°02'3 6.8
2018-Apr-14 12:00N 40°39' W 074°05'3 6.6
2018-Apr-14 11:30N 40°39' W 074°10'5 4.0
2018-Apr-14 10:19N 40°34' W 074°12'2 2.8
2018-Apr-14 09:42N 40°36' W 074°12'1 6.0
2018-Apr-14 09:30N 40°37' W 074°12'3 5.1
2018-Apr-14 08:58N 40°39' W 074°09'4 7.6
2018-Apr-14 08:30N 40°39' W 074°04'4 7.1
2018-Apr-14 08:00N 40°42' W 074°02'4 8.8
2018-Apr-14 07:30N 40°46' W 073°60'0 0.3
2018-Apr-14 07:00N 40°46' W 073°60'1 2.2
2018-Apr-14 06:30N 40°45' W 074°01'3 6.2
2018-Apr-14 06:00N 40°43' W 074°02'3 6.8
2018-Apr-14 05:30N 40°40' W 074°04'3 6.6
2018-Apr-14 04:59N 40°39' W 074°09'1 2.4
2018-Apr-14 04:30N 40°41' W 074°08'2 4.0
2018-Apr-14 04:00N 40°39' W 074°08'3 5.1
2018-Apr-14 03:30N 40°39' W 074°05'2 3.8
2018-Apr-14 02:59N 40°41' W 074°05'0 0.0
2018-Apr-14 02:29N 40°41' W 074°05'0 0.6
2018-Apr-14 02:00N 40°41' W 074°04'2 4.7
2018-Apr-14 01:30N 40°39' W 074°06'2 4.8
2018-Apr-14 00:59N 40°40' W 074°09'2 3.0
2018-Apr-14 00:29N 40°41' W 074°08'2 5.0
2018-Apr-14 00:00N 40°39' W 074°10'4 1.9
2018-Apr-13 21:45N 40°35' W 074°12'1 0.5
2018-Apr-13 19:20N 40°36' W 074°12'2 6.5
2018-Apr-13 18:59N 40°39' W 074°11'3 6.1
2018-Apr-13 18:30N 40°39' W 074°08'2 4.7
2018-Apr-13 18:00N 40°39' W 074°05'3 5.6
2018-Apr-13 17:30N 40°39' W 074°08'2 4.0
2018-Apr-13 17:00N 40°41' W 074°08'1 1.5
2018-Apr-13 16:30N 40°41' W 074°08'3 5.2
2018-Apr-13 16:00N 40°39' W 074°08'3 6.7
2018-Apr-13 15:30N 40°40' W 074°04'4 8.8
2018-Apr-13 15:00N 40°44' W 074°01'3 5.8
2018-Apr-13 14:30N 40°46' W 073°60'2 4.9
2018-Apr-13 14:00N 40°44' W 074°01'3 6.1
2018-Apr-13 13:31N 40°41' W 074°02'3 6.0
2018-Apr-13 13:00N 40°39' W 074°05'3 7.0
2018-Apr-13 12:30N 40°39' W 074°10'5 3.8
2018-Apr-13 11:16N 40°34' W 074°12'1 4.3
2018-Apr-13 10:57N 40°36' W 074°12'3 5.8
2018-Apr-13 10:30N 40°38' W 074°12'3 5.7
2018-Apr-13 09:59N 40°39' W 074°08'3 6.1
2018-Apr-13 09:31N 40°40' W 074°04'3 5.5
2018-Apr-13 09:00N 40°42' W 074°02'3 6.9
2018-Apr-13 08:30N 40°45' W 074°01'2 3.0
2018-Apr-13 08:00N 40°46' W 073°60'1 1.1
2018-Apr-13 07:30N 40°46' W 074°00'3 6.6
2018-Apr-13 07:00N 40°43' W 074°02'3 5.6
2018-Apr-13 06:30N 40°41' W 074°04'1 1.0
2018-Apr-13 05:59N 40°41' W 074°05'0 0.0
2018-Apr-13 05:29N 40°41' W 074°05'0 0.0
2018-Apr-13 04:59N 40°41' W 074°05'0 0.0
2018-Apr-13 04:29N 40°41' W 074°05'0 0.0
2018-Apr-13 03:59N 40°41' W 074°05'0 0.0
2018-Apr-13 03:29N 40°41' W 074°05'0 0.0
2018-Apr-13 02:59N 40°41' W 074°05'0 0.3
2018-Apr-13 02:29N 40°41' W 074°05'2 3.5
2018-Apr-13 01:59N 40°39' W 074°04'4 7.8
2018-Apr-13 01:31N 40°39' W 074°09'2 4.7
2018-Apr-13 00:59N 40°41' W 074°08'2 5.0
2018-Apr-13 00:30N 40°39' W 074°08'4 7.2
2018-Apr-13 00:00N 40°40' W 074°04'1 2.3
2018-Apr-12 23:30N 40°41' W 074°05'0 0.7
2018-Apr-12 23:00N 40°41' W 074°04'3 5.0
2018-Apr-12 22:30N 40°39' W 074°06'2 4.3
2018-Apr-12 22:00N 40°40' W 074°09'1 2.8
2018-Apr-12 21:30N 40°41' W 074°08'1 1.7
2018-Apr-12 20:58N 40°40' W 074°08'1 2.9
2018-Apr-12 20:29N 40°39' W 074°08'3 5.5
2018-Apr-12 20:00N 40°39' W 074°05'2 3.3
2018-Apr-12 19:30N 40°41' W 074°04'2 3.4
2018-Apr-12 19:00N 40°42' W 074°02'510.2
2018-Apr-12 18:31N 40°46' W 073°60'1 2.4
2018-Apr-12 18:00N 40°45' W 074°01'2 4.0
2018-Apr-12 17:30N 40°44' W 074°01'2 4.1
2018-Apr-12 17:01N 40°42' W 074°02'3 5.1
2018-Apr-12 16:31N 40°39' W 074°04'3 6.9
2018-Apr-12 16:00N 40°38' W 074°09'3 5.1
2018-Apr-12 15:28N 40°38' W 074°12'4 1.6
2018-Apr-12 13:13N 40°34' W 074°12'1 0.9
2018-Apr-12 12:38N 40°35' W 074°13'2 6.4
2018-Apr-12 12:23N 40°36' W 074°12'2 6.2
2018-Apr-12 12:00N 40°39' W 074°11'3 5.8
2018-Apr-12 11:30N 40°39' W 074°07'3 5.8
2018-Apr-12 11:00N 40°40' W 074°04'3 5.8
2018-Apr-12 10:30N 40°42' W 074°02'3 6.0
2018-Apr-12 10:00N 40°45' W 074°01'2 3.2
2018-Apr-12 09:30N 40°46' W 073°60'1 1.2
2018-Apr-12 09:00N 40°46' W 074°00'0 0.2
2018-Apr-12 08:30N 40°46' W 074°00'1 1.2
2018-Apr-12 07:59N 40°46' W 073°60'0 0.0
2018-Apr-12 07:29N 40°46' W 073°60'1 1.2
2018-Apr-12 06:59N 40°46' W 074°00'0 0.0
2018-Apr-12 06:29N 40°46' W 074°00'0 0.0
2018-Apr-12 05:59N 40°46' W 074°00'0 0.0
2018-Apr-12 05:29N 40°46' W 074°00'0 0.0
2018-Apr-12 04:59N 40°46' W 074°00'0 0.0
2018-Apr-12 04:29N 40°46' W 074°00'0 0.0
2018-Apr-12 03:59N 40°46' W 074°00'0 0.0
2018-Apr-12 03:29N 40°46' W 074°00'0 0.0
2018-Apr-12 02:59N 40°46' W 074°00'0 0.0
2018-Apr-12 02:29N 40°46' W 074°00'0 0.0
2018-Apr-12 01:59N 40°46' W 074°00'0 0.0
2018-Apr-12 01:29N 40°46' W 074°00'0 0.0
2018-Apr-12 00:59N 40°46' W 074°00'0 0.2
2018-Apr-12 00:30N 40°46' W 074°00'0 0.2
2018-Apr-12 00:00N 40°46' W 074°00'0 0.0
2018-Apr-11 23:30N 40°46' W 074°00'0 0.0
2018-Apr-11 23:00N 40°46' W 074°00'0 0.0
2018-Apr-11 22:30N 40°46' W 074°00'0 0.0
2018-Apr-11 22:00N 40°46' W 074°00'0 0.0
2018-Apr-11 21:30N 40°46' W 074°00'0 0.0
2018-Apr-11 21:00N 40°46' W 074°00'0 0.0
2018-Apr-11 20:30N 40°46' W 074°00'0 0.0
2018-Apr-11 20:00N 40°46' W 074°00'0 0.2
2018-Apr-11 19:30N 40°46' W 074°00'0 0.8
2018-Apr-11 18:59N 40°46' W 074°01'0 0.9
2018-Apr-11 18:29N 40°45' W 074°01'0 0.2
2018-Apr-11 17:59N 40°45' W 074°01'1 1.5
2018-Apr-11 17:31N 40°45' W 074°01'3 5.1
2018-Apr-11 17:01N 40°42' W 074°02'2 4.2
2018-Apr-11 16:30N 40°41' W 074°04'0 0.8
2018-Apr-11 15:59N 40°41' W 074°04'  

Dump ship's entire track history